DW6213 Weather Reports


Display with metric or nautical units.
time (UTC)temp
F
wind
direction
speed
MPH
gust
MPH
rain 1hr
in
rain 24hr
in
rain mn
in
humidity
%
barometer
mb
20190819155317 71 297 2.0 8.0 0.00 0.00 0.00 67 1013.8
20190819152236 69 249 3.0 10.0 0.00 0.00 0.00 69 1013.7
20190819151251 69 272 3.0 9.0 0.00 0.00 0.00 69 1013.6
20190819145319 67 301 1.0 9.0 0.00 0.00 0.00 72 1013.6
20190819141255 65 200 1.0 7.0 0.00 0.00 0.00 74 1013.6
20190819134336 63 239 1.0 8.0 0.00 0.00 0.00 76 1013.7
20190819132242 62 111 0.0 6.0 0.00 0.00 0.00 78 1013.7
20190819125323 59 259 1.0 8.0 0.00 0.00 0.00 80 1013.8
20190819121258 56 164 1.0 3.0 0.00 0.00 0.00 83 1013.8
20190819115325 55 239 0.0 3.0 0.00 0.00 0.00 84 1013.8
20190819114340 55 283 1.0 3.0 0.00 0.00 0.00 84 1013.9
20190819112245 55 232 0.0 3.0 0.00 0.00 0.00 84 1013.6
20190819111259 55 201 0.0 3.0 0.00 0.00 0.00 84 1013.6
20190819105327 55 181 0.0 1.0 0.00 0.00 0.00 86 1013.4
20190819102246 54 169 0.0 1.0 0.00 0.00 0.00 86 1013.2
20190819094343 55 245 0.0 2.0 0.00 0.00 0.00 87 1013.0
20190819092245 55 175 0.0 2.0 0.00 0.00 0.00 85 1012.8
20190819085330 57 206 1.0 3.0 0.00 0.00 0.00 83 1012.7
20190819084345 57 262 1.0 5.0 0.00 0.00 0.00 83 1012.7
20190819082250 56 227 0.0 3.0 0.00 0.00 0.00 84 1012.8
20190819081305 56 226 0.0 3.0 0.00 0.00 0.00 84 1012.7
20190819075332 56 188 0.0 3.0 0.00 0.00 0.00 82 1012.8
20190819074347 56 254 0.0 3.0 0.00 0.00 0.00 82 1012.8
20190819072252 56 181 0.0 3.0 0.00 0.00 0.00 81 1012.8
20190819071306 57 194 0.0 3.0 0.00 0.00 0.00 80 1012.8
20190819065336 58 189 0.0 6.0 0.00 0.00 0.00 77 1012.7
20190819064349 58 233 1.0 6.0 0.00 0.00 0.00 77 1012.7
20190819062254 59 219 1.0 5.0 0.00 0.00 0.00 76 1012.6
20190819054230 58 180 1.0 3.0 0.00 0.01 0.00 76 1012.5
20190819052257 58 202 1.0 3.0 0.00 0.01 0.00 77 1012.4
20190819045339 59 233 1.0 5.0 0.00 0.04 0.00 75 1012.1
20190819042257 60 230 0.0 6.0 0.00 0.12 0.20 74 1011.8
20190819035339 60 218 1.0 6.0 0.00 0.23 0.20 75 1011.6
20190819034232 61 205 1.0 5.0 0.00 0.28 0.20 72 1011.6
20190819031314 61 230 2.0 5.0 0.00 0.44 0.20 69 1011.3
20190819025343 61 209 1.0 3.0 0.00 0.50 0.20 70 1011.1
20190819024235 61 234 1.0 5.0 0.00 0.57 0.20 71 1011.0
20190819022303 61 240 1.0 3.0 0.00 0.63 0.20 70 1010.9
20190819021317 61 216 0.0 3.0 0.00 0.63 0.20 72 1010.8
20190819014236 63 217 0.0 3.0 0.00 0.63 0.20 67 1010.4
20190819012304 65 206 0.0 3.0 0.00 0.63 0.20 63 1010.1
20190819005347 69 175 0.0 3.0 0.00 0.63 0.20 58 1009.7
20190819004238 70 260 1.0 9.0 0.00 0.63 0.20 54 1009.6
20190818235349 70 306 8.0 12.0 0.00 0.63 0.20 50 1009.6
20190818234238 70 310 10.0 15.0 0.00 0.63 0.20 49 1009.6
20190818231320 70 319 11.0 17.0 0.00 0.63 0.20 54 1009.3
20190818225351 69 331 13.0 16.0 0.00 0.63 0.20 50 1009.3
20190818224242 69 316 11.0 16.0 0.00 0.63 0.20 48 1009.3
20190818222311 69 323 13.0 21.0 0.00 0.63 0.20 48 1009.4
20190818221325 69 328 10.0 20.0 0.00 0.63 0.20 50 1009.5
20190818214245 69 320 13.0 20.0 0.00 0.63 0.20 50 1009.2
20190818211327 69 310 14.0 20.0 0.00 0.63 0.20 51 1009.2
20190818205233 69 316 15.0 20.0 0.00 0.63 0.20 52 1009.3
20190818202315 69 273 13.0 20.0 0.00 0.63 0.20 50 1009.3
20190818201329 68 314 14.0 20.0 0.00 0.63 0.20 54 1009.2
20190818195233 68 312 16.0 21.0 0.00 0.63 0.20 51 1009.3
20190818194248 68 320 12.0 20.0 0.00 0.63 0.20 54 1009.2
20190818192316 68 308 13.0 20.0 0.00 0.63 0.20 53 1009.0
20190818185233 67 309 12.0 17.0 0.00 0.63 0.20 59 1008.9
20190818184247 67 321 10.0 20.0 0.00 0.63 0.20 59 1008.8
20190818181332 66 330 9.0 14.0 0.00 0.63 0.20 58 1008.6
20190818174253 66 331 13.0 18.0 0.00 0.63 0.20 55 1008.6
20190818172321 65 332 11.0 17.0 0.00 0.63 0.20 61 1008.4
20190818165240 64 320 12.0 16.0 0.00 0.63 0.20 66 1008.5
20190818161337 64 338 13.0 20.0 0.00 0.63 0.20 67 1008.1